sensor_id;sensor_type;location;lat;lon;timestamp;P1;durP1;ratioP1;P2;durP2;ratioP2
20042;SDS011;10182;52.896;6.496;2023-06-10T00:00:00;7.73;;;5.20;;
20042;SDS011;10182;52.896;6.496;2023-06-10T00:05:05;7.20;;;4.90;;
20042;SDS011;10182;52.896;6.496;2023-06-10T00:10:07;7.60;;;4.80;;
20042;SDS011;10182;52.896;6.496;2023-06-10T00:15:12;7.37;;;5.20;;
20042;SDS011;10182;52.896;6.496;2023-06-10T00:20:13;9.07;;;5.77;;
20042;SDS011;10182;52.896;6.496;2023-06-10T00:25:16;8.83;;;5.27;;
20042;SDS011;10182;52.896;6.496;2023-06-10T00:30:19;8.30;;;5.50;;
20042;SDS011;10182;52.896;6.496;2023-06-10T00:35:21;9.07;;;6.27;;
20042;SDS011;10182;52.896;6.496;2023-06-10T00:40:23;12.30;;;6.23;;
20042;SDS011;10182;52.896;6.496;2023-06-10T00:45:26;8.47;;;6.40;;
20042;SDS011;10182;52.896;6.496;2023-06-10T00:50:28;11.10;;;6.27;;
20042;SDS011;10182;52.896;6.496;2023-06-10T00:55:31;7.20;;;5.60;;
20042;SDS011;10182;52.896;6.496;2023-06-10T01:00:34;8.33;;;5.57;;
20042;SDS011;10182;52.896;6.496;2023-06-10T01:05:36;10.47;;;5.97;;
20042;SDS011;10182;52.896;6.496;2023-06-10T01:10:40;9.33;;;6.43;;
20042;SDS011;10182;52.896;6.496;2023-06-10T01:15:46;8.57;;;6.47;;
20042;SDS011;10182;52.896;6.496;2023-06-10T01:20:48;7.10;;;5.63;;
20042;SDS011;10182;52.896;6.496;2023-06-10T01:25:52;10.77;;;5.77;;
20042;SDS011;10182;52.896;6.496;2023-06-10T01:31:00;8.37;;;6.40;;
20042;SDS011;10182;52.896;6.496;2023-06-10T01:36:09;9.07;;;6.03;;
20042;SDS011;10182;52.896;6.496;2023-06-10T01:41:14;10.03;;;6.50;;
20042;SDS011;10182;52.896;6.496;2023-06-10T01:46:18;9.63;;;6.60;;
20042;SDS011;10182;52.896;6.496;2023-06-10T01:51:21;10.67;;;6.10;;
20042;SDS011;10182;52.896;6.496;2023-06-10T01:56:24;8.93;;;6.37;;
20042;SDS011;10182;52.896;6.496;2023-06-10T02:01:26;11.17;;;6.13;;
20042;SDS011;10182;52.896;6.496;2023-06-10T02:06:27;7.73;;;5.77;;
20042;SDS011;10182;52.896;6.496;2023-06-10T02:11:30;7.17;;;5.53;;
20042;SDS011;10182;52.896;6.496;2023-06-10T02:16:32;9.57;;;5.63;;
20042;SDS011;10182;52.896;6.496;2023-06-10T02:21:34;12.60;;;6.27;;
20042;SDS011;10182;52.896;6.496;2023-06-10T02:26:37;10.27;;;6.53;;
20042;SDS011;10182;52.896;6.496;2023-06-10T02:31:40;10.20;;;6.00;;
20042;SDS011;10182;52.896;6.496;2023-06-10T02:36:42;10.27;;;6.17;;
20042;SDS011;10182;52.896;6.496;2023-06-10T02:41:45;9.53;;;6.00;;
20042;SDS011;10182;52.896;6.496;2023-06-10T02:46:46;8.47;;;5.73;;
20042;SDS011;10182;52.896;6.496;2023-06-10T02:51:49;9.67;;;6.10;;
20042;SDS011;10182;52.896;6.496;2023-06-10T02:56:54;9.47;;;5.60;;
20042;SDS011;10182;52.896;6.496;2023-06-10T03:01:56;10.40;;;6.47;;
20042;SDS011;10182;52.896;6.496;2023-06-10T03:06:59;9.90;;;6.30;;
20042;SDS011;10182;52.896;6.496;2023-06-10T03:12:05;8.00;;;6.07;;
20042;SDS011;10182;52.896;6.496;2023-06-10T03:17:08;12.30;;;6.70;;
20042;SDS011;10182;52.896;6.496;2023-06-10T03:22:10;9.07;;;6.07;;
20042;SDS011;10182;52.896;6.496;2023-06-10T03:27:14;16.40;;;6.73;;
20042;SDS011;10182;52.896;6.496;2023-06-10T03:32:16;11.70;;;6.97;;
20042;SDS011;10182;52.896;6.496;2023-06-10T03:37:18;9.33;;;6.13;;
20042;SDS011;10182;52.896;6.496;2023-06-10T03:42:21;9.73;;;5.87;;
20042;SDS011;10182;52.896;6.496;2023-06-10T03:47:23;12.10;;;7.27;;
20042;SDS011;10182;52.896;6.496;2023-06-10T03:52:24;8.33;;;6.27;;
20042;SDS011;10182;52.896;6.496;2023-06-10T03:57:27;11.17;;;6.57;;
20042;SDS011;10182;52.896;6.496;2023-06-10T04:02:29;14.40;;;6.90;;
20042;SDS011;10182;52.896;6.496;2023-06-10T04:07:33;10.97;;;6.13;;
20042;SDS011;10182;52.896;6.496;2023-06-10T04:12:35;10.30;;;6.50;;
20042;SDS011;10182;52.896;6.496;2023-06-10T04:17:38;12.03;;;6.50;;
20042;SDS011;10182;52.896;6.496;2023-06-10T04:22:40;8.40;;;5.80;;
20042;SDS011;10182;52.896;6.496;2023-06-10T04:27:43;10.83;;;6.90;;
20042;SDS011;10182;52.896;6.496;2023-06-10T04:32:44;10.40;;;5.87;;
20042;SDS011;10182;52.896;6.496;2023-06-10T04:37:47;9.07;;;6.40;;
20042;SDS011;10182;52.896;6.496;2023-06-10T04:42:50;10.10;;;6.27;;
20042;SDS011;10182;52.896;6.496;2023-06-10T04:47:51;8.77;;;5.73;;
20042;SDS011;10182;52.896;6.496;2023-06-10T04:52:55;12.00;;;6.43;;
20042;SDS011;10182;52.896;6.496;2023-06-10T04:57:59;11.47;;;5.37;;
20042;SDS011;10182;52.896;6.496;2023-06-10T05:03:00;14.80;;;7.00;;
20042;SDS011;10182;52.896;6.496;2023-06-10T05:08:02;9.60;;;6.13;;
20042;SDS011;10182;52.896;6.496;2023-06-10T05:13:05;9.37;;;6.07;;
20042;SDS011;10182;52.896;6.496;2023-06-10T05:18:07;8.23;;;6.80;;
20042;SDS011;10182;52.896;6.496;2023-06-10T05:23:08;8.97;;;6.13;;
20042;SDS011;10182;52.896;6.496;2023-06-10T05:28:11;10.70;;;6.23;;
20042;SDS011;10182;52.896;6.496;2023-06-10T05:33:13;9.20;;;6.13;;
20042;SDS011;10182;52.896;6.496;2023-06-10T05:38:15;10.73;;;5.97;;
20042;SDS011;10182;52.896;6.496;2023-06-10T05:43:18;8.33;;;5.37;;
20042;SDS011;10182;52.896;6.496;2023-06-10T05:48:19;9.23;;;5.40;;
20042;SDS011;10182;52.896;6.496;2023-06-10T05:53:21;13.37;;;5.70;;
20042;SDS011;10182;52.896;6.496;2023-06-10T05:58:24;8.93;;;5.47;;
20042;SDS011;10182;52.896;6.496;2023-06-10T06:03:26;10.53;;;6.67;;
20042;SDS011;10182;52.896;6.496;2023-06-10T06:08:28;8.13;;;6.07;;
20042;SDS011;10182;52.896;6.496;2023-06-10T06:13:31;8.80;;;5.70;;
20042;SDS011;10182;52.896;6.496;2023-06-10T06:18:33;8.23;;;5.87;;
20042;SDS011;10182;52.896;6.496;2023-06-10T06:23:35;10.70;;;6.20;;
20042;SDS011;10182;52.896;6.496;2023-06-10T06:28:38;10.23;;;5.67;;
20042;SDS011;10182;52.896;6.496;2023-06-10T06:33:40;9.93;;;5.90;;
20042;SDS011;10182;52.896;6.496;2023-06-10T06:38:42;8.47;;;6.10;;
20042;SDS011;10182;52.896;6.496;2023-06-10T06:43:45;8.97;;;5.27;;
20042;SDS011;10182;52.896;6.496;2023-06-10T06:48:46;9.67;;;6.13;;
20042;SDS011;10182;52.896;6.496;2023-06-10T06:53:48;11.17;;;5.90;;
20042;SDS011;10182;52.896;6.496;2023-06-10T06:58:52;7.33;;;5.67;;
20042;SDS011;10182;52.896;6.496;2023-06-10T07:03:54;8.40;;;5.77;;
20042;SDS011;10182;52.896;6.496;2023-06-10T07:08:56;9.90;;;5.97;;
20042;SDS011;10182;52.896;6.496;2023-06-10T07:13:59;11.63;;;6.00;;
20042;SDS011;10182;52.896;6.496;2023-06-10T07:19:00;7.33;;;5.13;;
20042;SDS011;10182;52.896;6.496;2023-06-10T07:24:02;9.07;;;5.70;;
20042;SDS011;10182;52.896;6.496;2023-06-10T07:29:05;10.83;;;5.77;;
20042;SDS011;10182;52.896;6.496;2023-06-10T07:34:07;10.57;;;6.00;;
20042;SDS011;10182;52.896;6.496;2023-06-10T07:39:09;11.27;;;5.60;;
20042;SDS011;10182;52.896;6.496;2023-06-10T07:44:12;9.93;;;5.80;;
20042;SDS011;10182;52.896;6.496;2023-06-10T07:49:14;7.57;;;5.30;;
20042;SDS011;10182;52.896;6.496;2023-06-10T07:54:16;10.87;;;5.80;;
20042;SDS011;10182;52.896;6.496;2023-06-10T07:59:19;7.43;;;5.80;;
20042;SDS011;10182;52.896;6.496;2023-06-10T08:04:20;9.73;;;6.43;;
20042;SDS011;10182;52.896;6.496;2023-06-10T08:09:22;12.47;;;6.50;;
20042;SDS011;10182;52.896;6.496;2023-06-10T08:14:25;12.10;;;6.57;;
20042;SDS011;10182;52.896;6.496;2023-06-10T08:19:27;10.97;;;6.30;;
20042;SDS011;10182;52.896;6.496;2023-06-10T08:24:28;14.37;;;5.73;;
20042;SDS011;10182;52.896;6.496;2023-06-10T08:29:31;8.47;;;5.57;;
20042;SDS011;10182;52.896;6.496;2023-06-10T08:34:33;7.53;;;5.00;;
20042;SDS011;10182;52.896;6.496;2023-06-10T08:39:35;8.33;;;5.27;;
20042;SDS011;10182;52.896;6.496;2023-06-10T08:44:38;9.67;;;5.17;;
20042;SDS011;10182;52.896;6.496;2023-06-10T08:49:42;6.43;;;4.67;;
20042;SDS011;10182;52.896;6.496;2023-06-10T08:54:47;7.03;;;5.00;;
20042;SDS011;10182;52.896;6.496;2023-06-10T08:59:55;7.37;;;4.80;;
20042;SDS011;10182;52.896;6.496;2023-06-10T09:04:58;9.37;;;4.80;;
20042;SDS011;10182;52.896;6.496;2023-06-10T09:10:00;7.03;;;4.43;;
20042;SDS011;10182;52.896;6.496;2023-06-10T09:15:08;7.50;;;4.53;;
20042;SDS011;10182;52.896;6.496;2023-06-10T09:20:12;5.27;;;4.40;;
20042;SDS011;10182;52.896;6.496;2023-06-10T09:25:14;6.20;;;4.53;;
20042;SDS011;10182;52.896;6.496;2023-06-10T09:30:27;15.97;;;4.70;;
20042;SDS011;10182;52.896;6.496;2023-06-10T09:35:30;6.50;;;4.37;;
20042;SDS011;10182;52.896;6.496;2023-06-10T09:40:32;5.83;;;4.50;;
20042;SDS011;10182;52.896;6.496;2023-06-10T09:45:35;6.40;;;4.50;;
20042;SDS011;10182;52.896;6.496;2023-06-10T09:50:41;7.73;;;4.37;;
20042;SDS011;10182;52.896;6.496;2023-06-10T09:55:43;6.00;;;4.43;;
20042;SDS011;10182;52.896;6.496;2023-06-10T10:00:47;5.87;;;4.10;;
20042;SDS011;10182;52.896;6.496;2023-06-10T10:05:57;5.90;;;3.50;;
20042;SDS011;10182;52.896;6.496;2023-06-10T10:11:00;5.07;;;3.30;;
20042;SDS011;10182;52.896;6.496;2023-06-10T10:16:06;5.20;;;3.77;;
20042;SDS011;10182;52.896;6.496;2023-06-10T10:21:12;6.63;;;4.03;;
20042;SDS011;10182;52.896;6.496;2023-06-10T10:26:16;5.33;;;3.37;;
20042;SDS011;10182;52.896;6.496;2023-06-10T10:31:21;6.33;;;3.70;;
20042;SDS011;10182;52.896;6.496;2023-06-10T10:36:23;4.37;;;3.10;;
20042;SDS011;10182;52.896;6.496;2023-06-10T10:41:26;4.60;;;3.30;;
20042;SDS011;10182;52.896;6.496;2023-06-10T10:46:29;3.60;;;3.03;;
20042;SDS011;10182;52.896;6.496;2023-06-10T10:51:33;6.93;;;3.57;;
20042;SDS011;10182;52.896;6.496;2023-06-10T10:56:35;4.00;;;3.23;;
20042;SDS011;10182;52.896;6.496;2023-06-10T11:01:41;3.83;;;2.73;;
20042;SDS011;10182;52.896;6.496;2023-06-10T11:06:51;4.17;;;2.97;;
20042;SDS011;10182;52.896;6.496;2023-06-10T11:11:56;3.77;;;2.87;;
20042;SDS011;10182;52.896;6.496;2023-06-10T11:17:00;3.37;;;3.07;;
20042;SDS011;10182;52.896;6.496;2023-06-10T11:22:02;5.00;;;3.07;;
20042;SDS011;10182;52.896;6.496;2023-06-10T11:27:16;3.00;;;2.70;;
20042;SDS011;10182;52.896;6.496;2023-06-10T11:32:20;3.67;;;2.53;;
20042;SDS011;10182;52.896;6.496;2023-06-10T11:37:22;3.60;;;2.73;;
20042;SDS011;10182;52.896;6.496;2023-06-10T11:42:23;4.07;;;2.87;;
20042;SDS011;10182;52.896;6.496;2023-06-10T11:47:27;4.53;;;2.90;;
20042;SDS011;10182;52.896;6.496;2023-06-10T11:52:29;5.30;;;2.57;;
20042;SDS011;10182;52.896;6.496;2023-06-10T11:57:33;2.73;;;2.50;;
20042;SDS011;10182;52.896;6.496;2023-06-10T12:02:37;3.33;;;2.63;;
20042;SDS011;10182;52.896;6.496;2023-06-10T12:07:38;4.67;;;3.10;;
20042;SDS011;10182;52.896;6.496;2023-06-10T12:12:40;4.30;;;2.57;;
20042;SDS011;10182;52.896;6.496;2023-06-10T12:17:44;2.93;;;2.63;;
20042;SDS011;10182;52.896;6.496;2023-06-10T12:22:46;5.00;;;2.80;;
20042;SDS011;10182;52.896;6.496;2023-06-10T12:27:51;2.80;;;2.50;;
20042;SDS011;10182;52.896;6.496;2023-06-10T12:32:55;5.30;;;2.57;;
20042;SDS011;10182;52.896;6.496;2023-06-10T12:37:58;3.63;;;2.80;;
20042;SDS011;10182;52.896;6.496;2023-06-10T12:43:01;3.77;;;2.57;;
20042;SDS011;10182;52.896;6.496;2023-06-10T12:48:08;5.87;;;2.70;;
20042;SDS011;10182;52.896;6.496;2023-06-10T12:53:11;7.33;;;2.77;;
20042;SDS011;10182;52.896;6.496;2023-06-10T12:58:13;3.90;;;2.57;;
20042;SDS011;10182;52.896;6.496;2023-06-10T13:03:16;4.73;;;2.47;;
20042;SDS011;10182;52.896;6.496;2023-06-10T13:08:18;3.77;;;2.70;;
20042;SDS011;10182;52.896;6.496;2023-06-10T13:13:19;2.83;;;2.33;;
20042;SDS011;10182;52.896;6.496;2023-06-10T13:18:22;2.77;;;2.10;;
20042;SDS011;10182;52.896;6.496;2023-06-10T13:23:24;2.70;;;2.00;;
20042;SDS011;10182;52.896;6.496;2023-06-10T13:28:26;3.80;;;2.07;;
20042;SDS011;10182;52.896;6.496;2023-06-10T13:33:29;3.70;;;2.43;;
20042;SDS011;10182;52.896;6.496;2023-06-10T13:38:30;3.17;;;1.83;;
20042;SDS011;10182;52.896;6.496;2023-06-10T13:43:32;3.27;;;2.33;;
20042;SDS011;10182;52.896;6.496;2023-06-10T13:48:35;3.27;;;2.23;;
20042;SDS011;10182;52.896;6.496;2023-06-10T13:53:37;3.13;;;2.63;;
20042;SDS011;10182;52.896;6.496;2023-06-10T13:58:38;2.40;;;2.20;;
20042;SDS011;10182;52.896;6.496;2023-06-10T14:03:43;2.93;;;2.10;;
20042;SDS011;10182;52.896;6.496;2023-06-10T14:08:45;3.33;;;2.33;;
20042;SDS011;10182;52.896;6.496;2023-06-10T14:13:46;2.73;;;2.30;;
20042;SDS011;10182;52.896;6.496;2023-06-10T14:18:51;3.80;;;2.70;;
20042;SDS011;10182;52.896;6.496;2023-06-10T14:23:53;5.63;;;2.63;;
20042;SDS011;10182;52.896;6.496;2023-06-10T14:28:55;5.37;;;2.73;;
20042;SDS011;10182;52.896;6.496;2023-06-10T14:33:58;3.60;;;2.50;;
20042;SDS011;10182;52.896;6.496;2023-06-10T14:38:59;4.07;;;2.40;;
20042;SDS011;10182;52.896;6.496;2023-06-10T14:44:01;3.03;;;2.43;;
20042;SDS011;10182;52.896;6.496;2023-06-10T14:49:04;4.30;;;2.47;;
20042;SDS011;10182;52.896;6.496;2023-06-10T14:54:06;3.67;;;2.70;;
20042;SDS011;10182;52.896;6.496;2023-06-10T14:59:08;4.03;;;2.30;;
20042;SDS011;10182;52.896;6.496;2023-06-10T15:04:11;2.87;;;2.23;;
20042;SDS011;10182;52.896;6.496;2023-06-10T15:09:12;2.87;;;2.17;;
20042;SDS011;10182;52.896;6.496;2023-06-10T15:14:14;2.20;;;2.00;;
20042;SDS011;10182;52.896;6.496;2023-06-10T15:24:58;5.40;;;2.60;;
20042;SDS011;10182;52.896;6.496;2023-06-10T15:30:00;3.70;;;2.60;;
20042;SDS011;10182;52.896;6.496;2023-06-10T15:35:02;2.73;;;2.47;;
20042;SDS011;10182;52.896;6.496;2023-06-10T15:40:06;3.67;;;2.50;;
20042;SDS011;10182;52.896;6.496;2023-06-10T15:45:09;4.97;;;2.30;;
20042;SDS011;10182;52.896;6.496;2023-06-10T15:50:11;2.57;;;2.30;;
20042;SDS011;10182;52.896;6.496;2023-06-10T15:55:15;3.90;;;2.73;;
20042;SDS011;10182;52.896;6.496;2023-06-10T16:00:17;4.27;;;2.70;;
20042;SDS011;10182;52.896;6.496;2023-06-10T16:05:19;4.47;;;2.70;;
20042;SDS011;10182;52.896;6.496;2023-06-10T16:10:22;2.97;;;2.73;;
20042;SDS011;10182;52.896;6.496;2023-06-10T16:15:24;3.47;;;2.23;;
20042;SDS011;10182;52.896;6.496;2023-06-10T16:20:26;3.73;;;3.07;;
20042;SDS011;10182;52.896;6.496;2023-06-10T16:25:29;4.20;;;2.70;;
20042;SDS011;10182;52.896;6.496;2023-06-10T16:30:31;2.97;;;2.63;;
20042;SDS011;10182;52.896;6.496;2023-06-10T16:35:33;3.63;;;2.70;;
20042;SDS011;10182;52.896;6.496;2023-06-10T16:40:36;5.17;;;2.70;;
20042;SDS011;10182;52.896;6.496;2023-06-10T16:45:38;4.60;;;2.90;;
20042;SDS011;10182;52.896;6.496;2023-06-10T16:50:39;4.97;;;2.60;;
20042;SDS011;10182;52.896;6.496;2023-06-10T16:55:42;6.10;;;2.90;;
20042;SDS011;10182;52.896;6.496;2023-06-10T17:00:44;3.40;;;2.67;;
20042;SDS011;10182;52.896;6.496;2023-06-10T17:05:46;3.40;;;2.90;;
20042;SDS011;10182;52.896;6.496;2023-06-10T17:10:49;5.40;;;3.07;;
20042;SDS011;10182;52.896;6.496;2023-06-10T17:15:50;7.63;;;2.80;;
20042;SDS011;10182;52.896;6.496;2023-06-10T17:20:52;6.80;;;2.93;;
20042;SDS011;10182;52.896;6.496;2023-06-10T17:25:55;3.10;;;2.40;;
20042;SDS011;10182;52.896;6.496;2023-06-10T17:30:57;3.97;;;2.80;;
20042;SDS011;10182;52.896;6.496;2023-06-10T17:35:58;4.93;;;2.43;;
20042;SDS011;10182;52.896;6.496;2023-06-10T17:41:01;4.03;;;2.40;;
20042;SDS011;10182;52.896;6.496;2023-06-10T17:46:03;5.37;;;2.97;;
20042;SDS011;10182;52.896;6.496;2023-06-10T17:51:05;3.83;;;2.17;;
20042;SDS011;10182;52.896;6.496;2023-06-10T17:56:08;3.23;;;2.60;;
20042;SDS011;10182;52.896;6.496;2023-06-10T18:01:09;3.43;;;2.93;;
20042;SDS011;10182;52.896;6.496;2023-06-10T18:06:11;4.20;;;1.93;;
20042;SDS011;10182;52.896;6.496;2023-06-10T18:11:14;7.83;;;2.60;;
20042;SDS011;10182;52.896;6.496;2023-06-10T18:16:16;6.97;;;2.73;;
20042;SDS011;10182;52.896;6.496;2023-06-10T18:21:18;7.97;;;2.70;;
20042;SDS011;10182;52.896;6.496;2023-06-10T18:26:21;2.53;;;2.33;;
20042;SDS011;10182;52.896;6.496;2023-06-10T18:31:23;5.87;;;2.73;;
20042;SDS011;10182;52.896;6.496;2023-06-10T18:36:24;3.37;;;2.30;;
20042;SDS011;10182;52.896;6.496;2023-06-10T18:41:28;3.43;;;2.47;;
20042;SDS011;10182;52.896;6.496;2023-06-10T18:46:29;4.37;;;2.80;;
20042;SDS011;10182;52.896;6.496;2023-06-10T18:51:31;6.00;;;2.37;;
20042;SDS011;10182;52.896;6.496;2023-06-10T18:56:34;5.83;;;2.83;;
20042;SDS011;10182;52.896;6.496;2023-06-10T19:01:36;4.23;;;2.43;;
20042;SDS011;10182;52.896;6.496;2023-06-10T19:06:37;6.87;;;2.40;;
20042;SDS011;10182;52.896;6.496;2023-06-10T19:11:40;5.73;;;3.20;;
20042;SDS011;10182;52.896;6.496;2023-06-10T19:16:42;7.23;;;2.43;;
20042;SDS011;10182;52.896;6.496;2023-06-10T19:21:44;3.87;;;2.57;;
20042;SDS011;10182;52.896;6.496;2023-06-10T19:26:47;6.57;;;2.40;;
20042;SDS011;10182;52.896;6.496;2023-06-10T19:31:48;3.77;;;2.20;;
20042;SDS011;10182;52.896;6.496;2023-06-10T19:36:50;5.97;;;2.40;;
20042;SDS011;10182;52.896;6.496;2023-06-10T19:41:53;5.20;;;2.50;;
20042;SDS011;10182;52.896;6.496;2023-06-10T19:46:55;9.97;;;3.10;;
20042;SDS011;10182;52.896;6.496;2023-06-10T19:51:56;5.97;;;2.50;;
20042;SDS011;10182;52.896;6.496;2023-06-10T19:56:59;3.90;;;2.97;;
20042;SDS011;10182;52.896;6.496;2023-06-10T20:02:02;6.03;;;3.40;;
20042;SDS011;10182;52.896;6.496;2023-06-10T20:07:04;5.03;;;2.57;;
20042;SDS011;10182;52.896;6.496;2023-06-10T20:12:09;4.97;;;3.20;;
20042;SDS011;10182;52.896;6.496;2023-06-10T20:17:11;6.60;;;3.23;;
20042;SDS011;10182;52.896;6.496;2023-06-10T20:22:12;11.80;;;3.67;;
20042;SDS011;10182;52.896;6.496;2023-06-10T20:27:17;8.97;;;3.33;;
20042;SDS011;10182;52.896;6.496;2023-06-10T20:32:19;7.43;;;3.57;;
20042;SDS011;10182;52.896;6.496;2023-06-10T20:37:20;9.30;;;3.47;;
20042;SDS011;10182;52.896;6.496;2023-06-10T20:42:23;10.27;;;3.40;;
20042;SDS011;10182;52.896;6.496;2023-06-10T20:47:25;8.03;;;4.17;;
20042;SDS011;10182;52.896;6.496;2023-06-10T20:52:27;11.77;;;4.10;;
20042;SDS011;10182;52.896;6.496;2023-06-10T20:57:30;10.50;;;4.37;;
20042;SDS011;10182;52.896;6.496;2023-06-10T21:02:32;15.23;;;4.50;;
20042;SDS011;10182;52.896;6.496;2023-06-10T21:07:33;10.03;;;4.33;;
20042;SDS011;10182;52.896;6.496;2023-06-10T21:12:36;8.20;;;3.83;;
20042;SDS011;10182;52.896;6.496;2023-06-10T21:17:38;9.13;;;4.27;;
20042;SDS011;10182;52.896;6.496;2023-06-10T21:22:40;7.80;;;4.33;;
20042;SDS011;10182;52.896;6.496;2023-06-10T21:27:43;11.83;;;4.03;;
20042;SDS011;10182;52.896;6.496;2023-06-10T21:32:44;7.17;;;4.50;;
20042;SDS011;10182;52.896;6.496;2023-06-10T21:37:46;6.67;;;4.27;;
20042;SDS011;10182;52.896;6.496;2023-06-10T21:42:51;7.67;;;4.03;;
20042;SDS011;10182;52.896;6.496;2023-06-10T21:47:52;8.57;;;4.50;;
20042;SDS011;10182;52.896;6.496;2023-06-10T21:52:54;10.17;;;4.60;;
20042;SDS011;10182;52.896;6.496;2023-06-10T21:57:57;13.40;;;4.83;;
20042;SDS011;10182;52.896;6.496;2023-06-10T22:02:59;9.80;;;4.37;;
20042;SDS011;10182;52.896;6.496;2023-06-10T22:08:01;8.17;;;4.90;;
20042;SDS011;10182;52.896;6.496;2023-06-10T22:13:04;10.57;;;4.43;;
20042;SDS011;10182;52.896;6.496;2023-06-10T22:18:08;13.07;;;4.83;;
20042;SDS011;10182;52.896;6.496;2023-06-10T22:23:10;11.67;;;5.20;;
20042;SDS011;10182;52.896;6.496;2023-06-10T22:28:13;14.57;;;5.20;;
20042;SDS011;10182;52.896;6.496;2023-06-10T22:33:15;9.53;;;4.43;;
20042;SDS011;10182;52.896;6.496;2023-06-10T22:38:16;8.13;;;5.17;;
20042;SDS011;10182;52.896;6.496;2023-06-10T22:43:19;11.23;;;5.20;;
20042;SDS011;10182;52.896;6.496;2023-06-10T22:48:21;12.33;;;5.40;;
20042;SDS011;10182;52.896;6.496;2023-06-10T22:53:23;10.10;;;5.00;;
20042;SDS011;10182;52.896;6.496;2023-06-10T22:58:26;8.83;;;5.23;;
20042;SDS011;10182;52.896;6.496;2023-06-10T23:03:27;10.10;;;5.63;;
20042;SDS011;10182;52.896;6.496;2023-06-10T23:08:29;10.17;;;5.80;;
20042;SDS011;10182;52.896;6.496;2023-06-10T23:13:32;7.93;;;5.07;;
20042;SDS011;10182;52.896;6.496;2023-06-10T23:18:34;9.73;;;5.10;;
20042;SDS011;10182;52.896;6.496;2023-06-10T23:23:36;8.90;;;5.53;;
20042;SDS011;10182;52.896;6.496;2023-06-10T23:28:39;11.70;;;6.13;;
20042;SDS011;10182;52.896;6.496;2023-06-10T23:33:41;9.73;;;5.93;;
20042;SDS011;10182;52.896;6.496;2023-06-10T23:38:44;9.00;;;5.70;;
20042;SDS011;10182;52.896;6.496;2023-06-10T23:43:47;10.73;;;6.10;;
20042;SDS011;10182;52.896;6.496;2023-06-10T23:48:49;13.97;;;6.00;;
20042;SDS011;10182;52.896;6.496;2023-06-10T23:53:50;9.73;;;6.37;;
20042;SDS011;10182;52.896;6.496;2023-06-10T23:58:54;12.97;;;6.47;;
